sensor_id;sensor_type;location;lat;lon;timestamp;pressure;altitude;pressure_sealevel;temperature;humidity
20015;BME280;61787;42.022;23.078;2023-04-07T00:00:37;96568.81;;;4.60;55.99
20015;BME280;61787;42.022;23.078;2023-04-07T00:01:39;96576.69;;;4.65;55.70
20015;BME280;61787;42.022;23.078;2023-04-07T00:02:41;96574.59;;;4.62;55.63
20015;BME280;61787;42.022;23.078;2023-04-07T00:03:45;96575.88;;;4.64;55.79
20015;BME280;61787;42.022;23.078;2023-04-07T00:04:46;96573.97;;;4.56;56.52
20015;BME280;61787;42.022;23.078;2023-04-07T00:05:48;96577.38;;;4.57;56.51
20015;BME280;61787;42.022;23.078;2023-04-07T00:06:50;96580.16;;;4.52;56.48
20015;BME280;61787;42.022;23.078;2023-04-07T00:07:51;96578.38;;;4.47;55.50
20015;BME280;61787;42.022;23.078;2023-04-07T00:08:57;96581.16;;;4.42;56.33
20015;BME280;61787;42.022;23.078;2023-04-07T00:09:59;96583.22;;;4.45;55.88
20015;BME280;61787;42.022;23.078;2023-04-07T00:11:00;96582.16;;;4.46;56.05
20015;BME280;61787;42.022;23.078;2023-04-07T00:12:03;96576.22;;;4.49;55.93
20015;BME280;61787;42.022;23.078;2023-04-07T00:13:04;96568.75;;;4.51;56.27
20015;BME280;61787;42.022;23.078;2023-04-07T00:14:06;96575.63;;;4.52;55.40
20015;BME280;61787;42.022;23.078;2023-04-07T00:15:08;96584.69;;;4.51;56.13
20015;BME280;61787;42.022;23.078;2023-04-07T00:16:10;96581.34;;;4.46;55.31
20015;BME280;61787;42.022;23.078;2023-04-07T00:17:11;96586.06;;;4.49;56.01
20015;BME280;61787;42.022;23.078;2023-04-07T00:18:13;96580.75;;;4.49;55.60
20015;BME280;61787;42.022;23.078;2023-04-07T00:19:14;96577.03;;;4.50;55.83
20015;BME280;61787;42.022;23.078;2023-04-07T00:20:17;96577.41;;;4.43;55.94
20015;BME280;61787;42.022;23.078;2023-04-07T00:21:18;96586.56;;;4.37;55.90
20015;BME280;61787;42.022;23.078;2023-04-07T00:22:20;96579.78;;;4.31;55.52
20015;BME280;61787;42.022;23.078;2023-04-07T00:23:22;96579.63;;;4.27;55.92
20015;BME280;61787;42.022;23.078;2023-04-07T00:24:24;96585.31;;;4.21;55.58
20015;BME280;61787;42.022;23.078;2023-04-07T00:25:34;96581.59;;;4.22;56.30
20015;BME280;61787;42.022;23.078;2023-04-07T00:26:35;96576.88;;;4.19;55.53
20015;BME280;61787;42.022;23.078;2023-04-07T00:27:37;96581.59;;;4.22;55.49
20015;BME280;61787;42.022;23.078;2023-04-07T00:28:39;96576.88;;;4.19;55.45
20015;BME280;61787;42.022;23.078;2023-04-07T00:29:40;96581.22;;;4.15;55.42
20015;BME280;61787;42.022;23.078;2023-04-07T00:30:44;96577.88;;;4.09;55.68
20015;BME280;61787;42.022;23.078;2023-04-07T00:31:45;96582.69;;;4.07;55.61
20015;BME280;61787;42.022;23.078;2023-04-07T00:32:47;96579.94;;;3.99;56.17
20015;BME280;61787;42.022;23.078;2023-04-07T00:33:48;96581.03;;;3.98;56.65
20015;BME280;61787;42.022;23.078;2023-04-07T00:34:50;96574.16;;;3.97;57.92
20015;BME280;61787;42.022;23.078;2023-04-07T00:35:52;96576.22;;;4.00;57.31
20015;BME280;61787;42.022;23.078;2023-04-07T00:36:54;96583.06;;;4.01;56.53
20015;BME280;61787;42.022;23.078;2023-04-07T00:37:56;96572.19;;;4.02;57.42
20015;BME280;61787;42.022;23.078;2023-04-07T00:38:58;96572.56;;;3.96;57.50
20015;BME280;61787;42.022;23.078;2023-04-07T00:39:59;96582.72;;;3.94;57.27
20015;BME280;61787;42.022;23.078;2023-04-07T00:41:01;96569.34;;;3.85;57.58
20015;BME280;61787;42.022;23.078;2023-04-07T00:42:03;96578.69;;;3.82;57.46
20015;BME280;61787;42.022;23.078;2023-04-07T00:43:08;96578.38;;;3.84;57.01
20015;BME280;61787;42.022;23.078;2023-04-07T00:44:10;96580.94;;;3.75;57.44
20015;BME280;61787;42.022;23.078;2023-04-07T00:45:12;96579.84;;;3.76;58.27
20015;BME280;61787;42.022;23.078;2023-04-07T00:46:13;96582.03;;;3.74;58.15
20015;BME280;61787;42.022;23.078;2023-04-07T00:47:15;96587.91;;;3.71;57.80
20015;BME280;61787;42.022;23.078;2023-04-07T00:48:17;96577.28;;;3.71;57.37
20015;BME280;61787;42.022;23.078;2023-04-07T00:49:18;96582.41;;;3.81;58.61
20015;BME280;61787;42.022;23.078;2023-04-07T00:50:20;96579.94;;;3.85;58.41
20015;BME280;61787;42.022;23.078;2023-04-07T00:51:22;96580.25;;;3.83;57.17
20015;BME280;61787;42.022;23.078;2023-04-07T00:52:23;96586.63;;;3.82;57.43
20015;BME280;61787;42.022;23.078;2023-04-07T00:53:29;96583.97;;;3.82;57.52
20015;BME280;61787;42.022;23.078;2023-04-07T00:54:31;96587.41;;;3.83;57.45
20015;BME280;61787;42.022;23.078;2023-04-07T00:55:33;96586.25;;;3.89;57.90
20015;BME280;61787;42.022;23.078;2023-04-07T00:56:34;96588.69;;;3.85;57.67
20015;BME280;61787;42.022;23.078;2023-04-07T00:57:36;96586.25;;;3.89;58.26
20015;BME280;61787;42.022;23.078;2023-04-07T00:58:38;96585.13;;;3.90;58.57
20015;BME280;61787;42.022;23.078;2023-04-07T00:59:39;96577.97;;;3.91;57.96
20015;BME280;61787;42.022;23.078;2023-04-07T01:01:31;96578.97;;;3.95;57.88
20015;BME280;61787;42.022;23.078;2023-04-07T01:02:24;96581.03;;;3.98;56.90
20015;BME280;61787;42.022;23.078;2023-04-07T01:03:33;96580.72;;;3.85;56.79
20015;BME280;61787;42.022;23.078;2023-04-07T01:05:52;96585.94;;;3.63;57.10
20015;BME280;61787;42.022;23.078;2023-04-07T01:07:00;96588.19;;;3.56;57.09
20015;BME280;61787;42.022;23.078;2023-04-07T01:08:08;96583.94;;;3.55;56.84
20015;BME280;61787;42.022;23.078;2023-04-07T01:09:18;96585.81;;;3.55;56.92
20015;BME280;61787;42.022;23.078;2023-04-07T01:10:44;96589.75;;;3.57;56.81
20015;BME280;61787;42.022;23.078;2023-04-07T01:12:04;96583.97;;;3.69;57.57
20015;BME280;61787;42.022;23.078;2023-04-07T01:13:16;96587.91;;;3.71;56.46
20015;BME280;61787;42.022;23.078;2023-04-07T01:14:23;96592.44;;;3.84;56.35
20015;BME280;61787;42.022;23.078;2023-04-07T01:15:28;96588.47;;;3.96;56.59
20015;BME280;61787;42.022;23.078;2023-04-07T01:16:34;96582.91;;;3.97;57.81
20015;BME280;61787;42.022;23.078;2023-04-07T01:17:57;96586.53;;;3.88;58.84
20015;BME280;61787;42.022;23.078;2023-04-07T01:19:14;96586.53;;;3.88;58.95
20015;BME280;61787;42.022;23.078;2023-04-07T01:20:19;96591.25;;;3.91;59.95
20015;BME280;61787;42.022;23.078;2023-04-07T01:21:25;96595.00;;;3.90;59.45
20015;BME280;61787;42.022;23.078;2023-04-07T01:22:33;96589.69;;;3.90;58.79
20015;BME280;61787;42.022;23.078;2023-04-07T01:26:28;96589.50;;;4.00;59.26
20015;BME280;61787;42.022;23.078;2023-04-07T01:29:06;96590.84;;;4.11;59.36
20015;BME280;61787;42.022;23.078;2023-04-07T01:30:12;96588.75;;;4.21;58.25
20015;BME280;61787;42.022;23.078;2023-04-07T01:31:16;96593.38;;;4.29;57.93
20015;BME280;61787;42.022;23.078;2023-04-07T01:32:18;96591.50;;;4.30;57.83
20015;BME280;61787;42.022;23.078;2023-04-07T01:33:28;96588.88;;;4.30;57.42
20015;BME280;61787;42.022;23.078;2023-04-07T01:34:33;96591.31;;;4.40;58.03
20015;BME280;61787;42.022;23.078;2023-04-07T01:35:36;96590.59;;;4.48;57.44
20015;BME280;61787;42.022;23.078;2023-04-07T01:36:37;96595.78;;;4.53;57.24
20015;BME280;61787;42.022;23.078;2023-04-07T01:37:40;96591.38;;;4.49;57.34
20015;BME280;61787;42.022;23.078;2023-04-07T01:38:43;96595.81;;;4.40;57.98
20015;BME280;61787;42.022;23.078;2023-04-07T01:39:45;96594.53;;;4.37;57.22
20015;BME280;61787;42.022;23.078;2023-04-07T01:40:47;96592.00;;;4.32;58.40
20015;BME280;61787;42.022;23.078;2023-04-07T01:41:50;96592.78;;;4.33;58.17
20015;BME280;61787;42.022;23.078;2023-04-07T01:42:55;96587.97;;;4.35;57.72
20015;BME280;61787;42.022;23.078;2023-04-07T01:43:58;96592.28;;;4.44;58.04
20015;BME280;61787;42.022;23.078;2023-04-07T01:45:01;96593.31;;;4.57;58.33
20015;BME280;61787;42.022;23.078;2023-04-07T01:46:04;96596.06;;;4.65;57.90
20015;BME280;61787;42.022;23.078;2023-04-07T01:47:06;96588.44;;;4.72;57.14
20015;BME280;61787;42.022;23.078;2023-04-07T01:48:09;96580.06;;;4.79;57.08
20015;BME280;61787;42.022;23.078;2023-04-07T01:49:12;96583.88;;;4.87;57.42
20015;BME280;61787;42.022;23.078;2023-04-07T01:50:15;96585.94;;;4.90;56.98
20015;BME280;61787;42.022;23.078;2023-04-07T01:51:19;96586.53;;;4.87;56.70
20015;BME280;61787;42.022;23.078;2023-04-07T01:52:22;96585.66;;;4.78;57.21
20015;BME280;61787;42.022;23.078;2023-04-07T01:53:24;96592.50;;;4.70;57.69
20015;BME280;61787;42.022;23.078;2023-04-07T01:54:27;96586.44;;;4.56;57.75
20015;BME280;61787;42.022;23.078;2023-04-07T01:55:29;96594.09;;;4.57;57.80
20015;BME280;61787;42.022;23.078;2023-04-07T01:56:31;96591.03;;;4.64;57.83
20015;BME280;61787;42.022;23.078;2023-04-07T01:57:33;96592.66;;;4.73;57.97
20015;BME280;61787;42.022;23.078;2023-04-07T01:58:34;96588.94;;;4.75;57.36
20015;BME280;61787;42.022;23.078;2023-04-07T01:59:36;96592.13;;;4.63;57.50
20015;BME280;61787;42.022;23.078;2023-04-07T02:00:38;96592.78;;;4.46;57.10
20015;BME280;61787;42.022;23.078;2023-04-07T02:01:40;96594.38;;;4.20;58.91
20015;BME280;61787;42.022;23.078;2023-04-07T02:02:44;96597.91;;;4.02;59.01
20015;BME280;61787;42.022;23.078;2023-04-07T02:03:53;96587.53;;;3.78;59.39
20015;BME280;61787;42.022;23.078;2023-04-07T02:05:03;96588.47;;;3.55;59.39
20015;BME280;61787;42.022;23.078;2023-04-07T02:06:07;96589.63;;;3.35;60.95
20015;BME280;61787;42.022;23.078;2023-04-07T02:07:58;96590.22;;;3.32;62.02
20015;BME280;61787;42.022;23.078;2023-04-07T02:08:45;96595.88;;;3.25;61.57
20015;BME280;61787;42.022;23.078;2023-04-07T02:09:49;96590.06;;;3.23;61.53
20015;BME280;61787;42.022;23.078;2023-04-07T02:10:52;96589.59;;;3.21;62.17
20015;BME280;61787;42.022;23.078;2023-04-07T02:11:57;96590.47;;;3.17;62.41
20015;BME280;61787;42.022;23.078;2023-04-07T02:13:02;96598.72;;;3.29;62.72
20015;BME280;61787;42.022;23.078;2023-04-07T02:14:05;96593.16;;;3.44;61.56
20015;BME280;61787;42.022;23.078;2023-04-07T02:15:09;96599.66;;;3.65;61.65
20015;BME280;61787;42.022;23.078;2023-04-07T02:16:13;96597.94;;;3.74;60.97
20015;BME280;61787;42.022;23.078;2023-04-07T02:17:17;96595.56;;;3.86;60.99
20015;BME280;61787;42.022;23.078;2023-04-07T02:18:19;96593.78;;;3.96;60.69
20015;BME280;61787;42.022;23.078;2023-04-07T02:19:21;96593.22;;;3.99;61.00
20015;BME280;61787;42.022;23.078;2023-04-07T02:20:23;96580.94;;;4.03;60.89
20015;BME280;61787;42.022;23.078;2023-04-07T02:21:26;96587.31;;;4.02;60.42
20015;BME280;61787;42.022;23.078;2023-04-07T02:22:28;96590.47;;;4.04;60.85
20015;BME280;61787;42.022;23.078;2023-04-07T02:23:34;96590.84;;;3.97;61.42
20015;BME280;61787;42.022;23.078;2023-04-07T02:24:36;96591.13;;;3.96;61.91
20015;BME280;61787;42.022;23.078;2023-04-07T02:25:37;96591.44;;;4.08;61.51
20015;BME280;61787;42.022;23.078;2023-04-07T02:26:39;96588.69;;;4.13;61.34
20015;BME280;61787;42.022;23.078;2023-04-07T02:27:42;96589.53;;;4.22;60.28
20015;BME280;61787;42.022;23.078;2023-04-07T02:28:43;96587.28;;;4.29;60.20
20015;BME280;61787;42.022;23.078;2023-04-07T02:29:45;96586.88;;;4.36;60.20
20015;BME280;61787;42.022;23.078;2023-04-07T02:30:46;96589.13;;;4.42;59.80
20015;BME280;61787;42.022;23.078;2023-04-07T02:31:48;96585.28;;;4.48;59.37
20015;BME280;61787;42.022;23.078;2023-04-07T02:32:50;96589.38;;;4.54;59.12
20015;BME280;61787;42.022;23.078;2023-04-07T02:33:52;96573.34;;;4.59;59.01
20015;BME280;61787;42.022;23.078;2023-04-07T02:34:54;96584.94;;;4.63;58.80
20015;BME280;61787;42.022;23.078;2023-04-07T02:35:55;96583.25;;;4.67;59.36
20015;BME280;61787;42.022;23.078;2023-04-07T02:36:57;96586.41;;;4.69;58.48
20015;BME280;61787;42.022;23.078;2023-04-07T02:37:58;96582.06;;;4.73;58.89
20015;BME280;61787;42.022;23.078;2023-04-07T02:39:00;96580.69;;;4.76;58.78
20015;BME280;61787;42.022;23.078;2023-04-07T02:40:02;96584.59;;;4.79;58.03
20015;BME280;61787;42.022;23.078;2023-04-07T02:41:04;96586.53;;;4.87;58.61
20015;BME280;61787;42.022;23.078;2023-04-07T02:42:06;96587.22;;;4.92;57.76
20015;BME280;61787;42.022;23.078;2023-04-07T02:43:09;96583.16;;;4.95;57.55
20015;BME280;61787;42.022;23.078;2023-04-07T02:44:10;96586.31;;;4.97;57.80
20015;BME280;61787;42.022;23.078;2023-04-07T02:45:12;96592.09;;;4.99;57.29
20015;BME280;61787;42.022;23.078;2023-04-07T02:46:13;96580.50;;;4.95;57.58
20015;BME280;61787;42.022;23.078;2023-04-07T02:47:17;96586.09;;;4.93;57.68
20015;BME280;61787;42.022;23.078;2023-04-07T02:48:18;96586.31;;;4.97;58.03
20015;BME280;61787;42.022;23.078;2023-04-07T02:49:20;96587.25;;;5.01;57.67
20015;BME280;61787;42.022;23.078;2023-04-07T02:50:21;96582.28;;;5.08;56.13
20015;BME280;61787;42.022;23.078;2023-04-07T02:51:23;96587.59;;;5.08;56.45
20015;BME280;61787;42.022;23.078;2023-04-07T02:52:24;96582.78;;;5.10;56.48
20015;BME280;61787;42.022;23.078;2023-04-07T02:53:26;96590.75;;;5.10;55.95
20015;BME280;61787;42.022;23.078;2023-04-07T02:54:28;96585.06;;;5.03;55.76
20015;BME280;61787;42.022;23.078;2023-04-07T02:55:29;96583.16;;;4.95;55.33
20015;BME280;61787;42.022;23.078;2023-04-07T02:56:31;96582.19;;;4.91;55.23
20015;BME280;61787;42.022;23.078;2023-04-07T02:57:33;96583.28;;;4.90;55.47
20015;BME280;61787;42.022;23.078;2023-04-07T02:58:34;96583.16;;;4.95;56.42
20015;BME280;61787;42.022;23.078;2023-04-07T02:59:36;96582.06;;;4.96;55.38
20015;BME280;61787;42.022;23.078;2023-04-07T03:00:37;96584.97;;;4.86;56.55
20015;BME280;61787;42.022;23.078;2023-04-07T03:01:39;96591.72;;;4.69;55.95
20015;BME280;61787;42.022;23.078;2023-04-07T03:02:41;96591.31;;;4.62;56.45
20015;BME280;61787;42.022;23.078;2023-04-07T03:03:43;96591.47;;;4.44;57.50
20015;BME280;61787;42.022;23.078;2023-04-07T03:04:45;96586.22;;;4.30;58.21
20015;BME280;61787;42.022;23.078;2023-04-07T03:05:47;96594.75;;;4.27;58.78
20015;BME280;61787;42.022;23.078;2023-04-07T03:06:48;96592.00;;;4.32;58.22
20015;BME280;61787;42.022;23.078;2023-04-07T03:07:50;96594.53;;;4.37;58.75
20015;BME280;61787;42.022;23.078;2023-04-07T03:08:51;96589.22;;;4.37;58.22
20015;BME280;61787;42.022;23.078;2023-04-07T03:09:53;96600.16;;;4.36;58.63
20015;BME280;61787;42.022;23.078;2023-04-07T03:10:55;96596.09;;;4.38;58.12
20015;BME280;61787;42.022;23.078;2023-04-07T03:11:56;96598.16;;;4.41;58.10
20015;BME280;61787;42.022;23.078;2023-04-07T03:12:58;96598.38;;;4.31;58.96
20015;BME280;61787;42.022;23.078;2023-04-07T03:14:00;96596.03;;;4.16;58.38
20015;BME280;61787;42.022;23.078;2023-04-07T03:15:01;96598.78;;;4.11;59.68
20015;BME280;61787;42.022;23.078;2023-04-07T03:16:03;96601.16;;;4.12;59.30
20015;BME280;61787;42.022;23.078;2023-04-07T03:17:05;96596.25;;;4.19;58.59
20015;BME280;61787;42.022;23.078;2023-04-07T03:18:07;96601.06;;;4.17;58.89
20015;BME280;61787;42.022;23.078;2023-04-07T03:19:09;96602.44;;;4.15;58.95
20015;BME280;61787;42.022;23.078;2023-04-07T03:20:10;96593.81;;;4.09;58.56
20015;BME280;61787;42.022;23.078;2023-04-07T03:21:12;96597.94;;;4.15;58.78
20015;BME280;61787;42.022;23.078;2023-04-07T03:22:14;96605.28;;;4.18;57.79
20015;BME280;61787;42.022;23.078;2023-04-07T03:23:15;96600.66;;;4.24;57.63
20015;BME280;61787;42.022;23.078;2023-04-07T03:24:17;96601.63;;;4.28;57.68
20015;BME280;61787;42.022;23.078;2023-04-07T03:25:19;96612.13;;;4.33;58.12
20015;BME280;61787;42.022;23.078;2023-04-07T03:26:20;96610.00;;;4.35;58.15
20015;BME280;61787;42.022;23.078;2023-04-07T03:27:22;96605.16;;;4.37;58.06
20015;BME280;61787;42.022;23.078;2023-04-07T03:28:23;96608.88;;;4.36;57.30
20015;BME280;61787;42.022;23.078;2023-04-07T03:29:25;96599.47;;;4.30;57.44
20015;BME280;61787;42.022;23.078;2023-04-07T03:30:26;96614.91;;;4.28;57.76
20015;BME280;61787;42.022;23.078;2023-04-07T03:31:28;96604.78;;;4.30;58.79
20015;BME280;61787;42.022;23.078;2023-04-07T03:32:30;96603.69;;;4.31;57.92
20015;BME280;61787;42.022;23.078;2023-04-07T03:33:32;96607.44;;;4.30;57.85
20015;BME280;61787;42.022;23.078;2023-04-07T03:34:34;96607.34;;;4.08;57.98
20015;BME280;61787;42.022;23.078;2023-04-07T03:35:35;96606.56;;;3.66;59.86
20015;BME280;61787;42.022;23.078;2023-04-07T03:36:37;96610.09;;;3.16;60.31
20015;BME280;61787;42.022;23.078;2023-04-07T03:37:39;96610.91;;;2.97;62.14
20015;BME280;61787;42.022;23.078;2023-04-07T03:38:41;96611.78;;;2.74;62.69
20015;BME280;61787;42.022;23.078;2023-04-07T03:39:42;96603.63;;;2.52;63.22
20015;BME280;61787;42.022;23.078;2023-04-07T03:40:44;96610.16;;;2.41;64.38
20015;BME280;61787;42.022;23.078;2023-04-07T03:41:46;96610.78;;;2.33;64.73
20015;BME280;61787;42.022;23.078;2023-04-07T03:42:47;96614.63;;;2.22;65.12
20015;BME280;61787;42.022;23.078;2023-04-07T03:43:49;96615.19;;;2.19;65.44
20015;BME280;61787;42.022;23.078;2023-04-07T03:44:51;96620.28;;;2.15;65.52
20015;BME280;61787;42.022;23.078;2023-04-07T03:45:53;96608.00;;;2.00;66.46
20015;BME280;61787;42.022;23.078;2023-04-07T03:46:55;96612.41;;;1.86;66.64
20015;BME280;61787;42.022;23.078;2023-04-07T03:47:56;96617.69;;;1.86;66.73
20015;BME280;61787;42.022;23.078;2023-04-07T03:48:58;96618.69;;;1.90;67.13
20015;BME280;61787;42.022;23.078;2023-04-07T03:50:00;96613.97;;;1.87;66.99
20015;BME280;61787;42.022;23.078;2023-04-07T03:51:01;96619.25;;;1.87;67.02
20015;BME280;61787;42.022;23.078;2023-04-07T03:52:04;96621.97;;;1.82;66.81
20015;BME280;61787;42.022;23.078;2023-04-07T03:53:06;96620.97;;;1.78;67.37
20015;BME280;61787;42.022;23.078;2023-04-07T03:54:08;96619.66;;;1.76;67.37
20015;BME280;61787;42.022;23.078;2023-04-07T03:55:09;96620.44;;;1.76;67.54
20015;BME280;61787;42.022;23.078;2023-04-07T03:56:11;96624.13;;;1.75;67.84
20015;BME280;61787;42.022;23.078;2023-04-07T03:57:15;96630.47;;;1.79;67.69
20015;BME280;61787;42.022;23.078;2023-04-07T03:58:17;96632.03;;;1.80;68.10
20015;BME280;61787;42.022;23.078;2023-04-07T03:59:19;96624.66;;;1.77;68.12
20015;BME280;61787;42.022;23.078;2023-04-07T04:00:22;96631.53;;;1.78;68.46
20015;BME280;61787;42.022;23.078;2023-04-07T04:01:28;96632.06;;;1.75;68.76
20015;BME280;61787;42.022;23.078;2023-04-07T04:02:31;96637.94;;;1.72;68.91
20015;BME280;61787;42.022;23.078;2023-04-07T04:03:34;96630.28;;;1.70;68.35
20015;BME280;61787;42.022;23.078;2023-04-07T04:04:39;96640.06;;;1.70;68.51
20015;BME280;61787;42.022;23.078;2023-04-07T04:05:41;96634.22;;;1.73;67.86
20015;BME280;61787;42.022;23.078;2023-04-07T04:06:43;96636.28;;;1.76;68.22
20015;BME280;61787;42.022;23.078;2023-04-07T04:07:44;96640.97;;;1.84;68.25
20015;BME280;61787;42.022;23.078;2023-04-07T04:08:46;96640.88;;;1.94;67.93
20015;BME280;61787;42.022;23.078;2023-04-07T04:09:49;96631.34;;;1.93;67.60
20015;BME280;61787;42.022;23.078;2023-04-07T04:10:50;96630.84;;;1.91;68.16
20015;BME280;61787;42.022;23.078;2023-04-07T04:11:52;96638.03;;;1.86;67.73
20015;BME280;61787;42.022;23.078;2023-04-07T04:12:54;96633.81;;;1.85;68.03
20015;BME280;61787;42.022;23.078;2023-04-07T04:13:56;96639.28;;;1.93;67.92
20015;BME280;61787;42.022;23.078;2023-04-07T04:14:59;96636.00;;;2.01;68.01
20015;BME280;61787;42.022;23.078;2023-04-07T04:16:01;96635.97;;;2.06;67.46
20015;BME280;61787;42.022;23.078;2023-04-07T04:17:03;96642.75;;;2.12;66.63
20015;BME280;61787;42.022;23.078;2023-04-07T04:18:06;96642.72;;;2.18;67.99
20015;BME280;61787;42.022;23.078;2023-04-07T04:19:09;96636.97;;;2.72;82.14
20015;BME280;61787;42.022;23.078;2023-04-07T04:20:11;96649.50;;;2.66;69.53
20015;BME280;61787;42.022;23.078;2023-04-07T04:21:14;96650.41;;;2.56;66.41
20015;BME280;61787;42.022;23.078;2023-04-07T04:22:15;96648.97;;;2.45;66.54
20015;BME280;61787;42.022;23.078;2023-04-07T04:23:17;96646.53;;;2.30;66.12
20015;BME280;61787;42.022;23.078;2023-04-07T04:24:19;96645.81;;;2.25;66.07
20015;BME280;61787;42.022;23.078;2023-04-07T04:25:21;96647.94;;;2.23;66.19
20015;BME280;61787;42.022;23.078;2023-04-07T04:26:22;96645.50;;;2.26;66.62
20015;BME280;61787;42.022;23.078;2023-04-07T04:27:26;96650.84;;;2.21;66.04
20015;BME280;61787;42.022;23.078;2023-04-07T04:28:28;96651.16;;;2.20;66.27
20015;BME280;61787;42.022;23.078;2023-04-07T04:29:30;96650.63;;;2.18;66.46
20015;BME280;61787;42.022;23.078;2023-04-07T04:30:33;96653.56;;;2.16;65.89
20015;BME280;61787;42.022;23.078;2023-04-07T04:31:34;96657.50;;;2.19;65.91
20015;BME280;61787;42.022;23.078;2023-04-07T04:32:36;96659.69;;;2.11;66.56
20015;BME280;61787;42.022;23.078;2023-04-07T04:33:38;96656.56;;;2.09;66.21
20015;BME280;61787;42.022;23.078;2023-04-07T04:34:40;96662.28;;;2.17;66.50
20015;BME280;61787;42.022;23.078;2023-04-07T04:35:44;96654.28;;;2.22;65.52
20015;BME280;61787;42.022;23.078;2023-04-07T04:36:45;96655.81;;;2.28;65.45
20015;BME280;61787;42.022;23.078;2023-04-07T04:37:49;96659.63;;;2.40;67.70
20015;BME280;61787;42.022;23.078;2023-04-07T04:38:51;96656.56;;;2.52;65.84
20015;BME280;61787;42.022;23.078;2023-04-07T04:39:52;96658.72;;;2.50;65.39
20015;BME280;61787;42.022;23.078;2023-04-07T04:40:54;96657.78;;;2.60;64.58
20015;BME280;61787;42.022;23.078;2023-04-07T04:41:56;96657.44;;;2.66;64.22
20015;BME280;61787;42.022;23.078;2023-04-07T04:42:57;96670.03;;;2.74;64.44
20015;BME280;61787;42.022;23.078;2023-04-07T04:43:59;96664.00;;;2.87;64.32
20015;BME280;61787;42.022;23.078;2023-04-07T04:45:00;96660.13;;;2.98;63.45
20015;BME280;61787;42.022;23.078;2023-04-07T04:46:02;96663.88;;;2.97;63.80
20015;BME280;61787;42.022;23.078;2023-04-07T04:47:04;96661.28;;;2.92;62.75
20015;BME280;61787;42.022;23.078;2023-04-07T04:48:05;96663.88;;;2.97;62.88
20015;BME280;61787;42.022;23.078;2023-04-07T04:49:07;96668.00;;;3.04;63.07
20015;BME280;61787;42.022;23.078;2023-04-07T04:50:09;96662.56;;;3.14;63.31
20015;BME280;61787;42.022;23.078;2023-04-07T04:51:11;96658.13;;;3.28;63.40
20015;BME280;61787;42.022;23.078;2023-04-07T04:52:12;96660.00;;;3.41;63.92
20015;BME280;61787;42.022;23.078;2023-04-07T04:53:14;96664.47;;;3.59;63.56
20015;BME280;61787;42.022;23.078;2023-04-07T04:54:17;96669.03;;;3.72;64.34
20015;BME280;61787;42.022;23.078;2023-04-07T04:55:19;96674.34;;;3.86;64.37
20015;BME280;61787;42.022;23.078;2023-04-07T04:56:21;96669.34;;;3.98;65.19
20015;BME280;61787;42.022;23.078;2023-04-07T04:57:22;96674.19;;;4.10;64.41
20015;BME280;61787;42.022;23.078;2023-04-07T04:58:24;96673.38;;;4.23;64.43
20015;BME280;61787;42.022;23.078;2023-04-07T04:59:26;96672.91;;;4.35;64.16
20015;BME280;61787;42.022;23.078;2023-04-07T05:00:28;96667.84;;;4.47;63.50
20015;BME280;61787;42.022;23.078;2023-04-07T05:01:30;96671.88;;;4.58;63.48
20015;BME280;61787;42.022;23.078;2023-04-07T05:02:34;96670.41;;;4.65;63.14
20015;BME280;61787;42.022;23.078;2023-04-07T05:03:36;96672.06;;;4.75;63.66
20015;BME280;61787;42.022;23.078;2023-04-07T05:04:37;96674.31;;;4.82;62.99
20015;BME280;61787;42.022;23.078;2023-04-07T05:05:39;96677.81;;;4.91;62.46
20015;BME280;61787;42.022;23.078;2023-04-07T05:06:41;96676.03;;;5.00;62.87
20015;BME280;61787;42.022;23.078;2023-04-07T05:07:43;96675.78;;;5.10;61.78
20015;BME280;61787;42.022;23.078;2023-04-07T05:08:44;96665.34;;;5.13;61.26
20015;BME280;61787;42.022;23.078;2023-04-07T05:09:46;96669.44;;;5.20;61.23
20015;BME280;61787;42.022;23.078;2023-04-07T05:10:48;96671.81;;;5.21;59.66
20015;BME280;61787;42.022;23.078;2023-04-07T05:11:49;96674.47;;;5.21;59.04
20015;BME280;61787;42.022;23.078;2023-04-07T05:12:51;96678.72;;;5.22;59.74
20015;BME280;61787;42.022;23.078;2023-04-07T05:13:52;96675.56;;;5.20;59.45
20015;BME280;61787;42.022;23.078;2023-04-07T05:14:54;96676.19;;;5.17;58.96
20015;BME280;61787;42.022;23.078;2023-04-07T05:15:56;96672.44;;;5.18;59.70
20015;BME280;61787;42.022;23.078;2023-04-07T05:16:58;96677.75;;;5.18;58.72
20015;BME280;61787;42.022;23.078;2023-04-07T05:18:01;96681.59;;;5.12;60.12
20015;BME280;61787;42.022;23.078;2023-04-07T05:19:03;96683.75;;;5.10;59.77
20015;BME280;61787;42.022;23.078;2023-04-07T05:20:05;96678.34;;;5.15;60.07
20015;BME280;61787;42.022;23.078;2023-04-07T05:21:07;96684.25;;;5.12;59.03
20015;BME280;61787;42.022;23.078;2023-04-07T05:22:08;96688.97;;;5.15;59.78
20015;BME280;61787;42.022;23.078;2023-04-07T05:23:10;96688.19;;;5.14;60.31
20015;BME280;61787;42.022;23.078;2023-04-07T05:24:11;96692.91;;;5.18;60.53
20015;BME280;61787;42.022;23.078;2023-04-07T05:25:13;96683.66;;;5.15;60.44
20015;BME280;61787;42.022;23.078;2023-04-07T05:26:14;96683.75;;;5.10;60.62
20015;BME280;61787;42.022;23.078;2023-04-07T05:27:16;96684.84;;;5.09;61.10
20015;BME280;61787;42.022;23.078;2023-04-07T05:28:18;96681.44;;;4.95;60.06
20015;BME280;61787;42.022;23.078;2023-04-07T05:29:19;96683.72;;;4.88;60.12
20015;BME280;61787;42.022;23.078;2023-04-07T05:30:21;96681.75;;;4.93;61.17
20015;BME280;61787;42.022;23.078;2023-04-07T05:31:23;96684.00;;;5.00;60.52
20015;BME280;61787;42.022;23.078;2023-04-07T05:32:26;96679.53;;;5.09;59.78
20015;BME280;61787;42.022;23.078;2023-04-07T05:33:28;96679.97;;;4.89;59.58
20015;BME280;61787;42.022;23.078;2023-04-07T05:34:30;96679.34;;;4.69;58.73
20015;BME280;61787;42.022;23.078;2023-04-07T05:35:31;96684.69;;;4.56;58.13
20015;BME280;61787;42.022;23.078;2023-04-07T05:36:34;96679.38;;;4.42;58.28
20015;BME280;61787;42.022;23.078;2023-04-07T05:37:35;96684.97;;;4.27;58.50
20015;BME280;61787;42.022;23.078;2023-04-07T05:38:37;96684.69;;;4.15;57.93